Open Full Screen Window  High Contrast Mode
Wind Gusting 00 knots
06
September 24, 2016 8:18 PM EDT
Weather Information
Wind Direction
  020 °
Wind Speed
  06 kt (7 mph)
Wind Gust
  00 kt (0 mph)
Altimeter
30.11 in
Visibility
10 SM
Temperature
23° C
73° F
Dewpoint
20° C
68° F
Humidity
83%
1hr Rain Fall
00.00 in.
24hr Rain Fall
00.00 in.
Sky Condition
Clear
VFR

METAR KI69 250018Z AUTO 02006KT 10SM CLR 23/20 A3011 RMK AO2 T02320195

*Background is not an actual portrayal of the airport.